Time;durP1;ratioP1;P1;durP2;ratioP2;P2;SDS_P1;SDS_P2;PMS_P1;PMS_P2;Temp;Humidity;BMP_temperature;BMP_pressure;BME280_temperature;BME280_humidity;BME280_pressure;Samples;Min_cycle;Max_cycle;Signal;HPM_P1;HPM_P2
2023/09/09 00:01:18;;;;;;;12.50;8.37;;;;;;;17.35;100.00;101383.88;7366234;19;20407;-49
2023/09/09 00:03:48;;;;;;;15.27;8.70;;;;;;;17.33;100.00;101385.53;7391722;19;21326;-55
2023/09/09 00:06:18;;;;;;;14.83;8.97;;;;;;;17.31;100.00;101392.44;7366766;19;20399;-50
2023/09/09 00:08:47;;;;;;;13.23;9.30;;;;;;;17.29;100.00;101399.38;7390232;19;20402;-51
2023/09/09 00:11:17;;;;;;;12.67;8.50;;;;;;;17.28;100.00;101405.44;7366190;19;20458;-51
2023/09/09 00:13:47;;;;;;;13.17;8.60;;;;;;;17.26;100.00;101412.31;7388969;19;20523;-52
2023/09/09 00:16:20;;;;;;;12.90;9.70;;;;;;;17.28;100.00;101414.13;7367953;19;20496;-50
2023/09/09 00:18:55;;;;;;;13.57;9.70;;;;;;;17.28;100.00;101421.94;7391968;19;20764;-49
2023/09/09 00:21:25;;;;;;;12.30;8.90;;;;;;;17.26;100.00;101409.69;7366543;19;20778;-51
2023/09/09 00:23:54;;;;;;;13.07;9.47;;;;;;;17.28;100.00;101413.25;7391198;19;20423;-52
2023/09/09 00:26:25;;;;;;;13.00;9.40;;;;;;;17.24;100.00;101408.78;7367698;19;20542;-53
2023/09/09 00:28:55;;;;;;;14.27;9.50;;;;;;;17.18;100.00;101409.50;7390255;19;20387;-52
2023/09/09 00:31:27;;;;;;;13.53;9.70;;;;;;;17.13;100.00;101419.81;7366809;19;20531;-55
2023/09/09 00:33:57;;;;;;;16.47;9.30;;;;;;;17.12;100.00;101418.06;7389363;19;20423;-50
2023/09/09 00:36:26;;;;;;;13.67;9.00;;;;;;;17.13;100.00;101418.97;7367338;19;20429;-51
2023/09/09 00:38:56;;;;;;;13.57;9.20;;;;;;;17.10;100.00;101432.81;7390524;19;20405;-52
2023/09/09 00:41:25;;;;;;;13.90;9.67;;;;;;;17.07;100.00;101435.31;7366031;19;20429;-49
2023/09/09 00:43:55;;;;;;;17.13;9.20;;;;;;;17.04;100.00;101429.13;7390036;19;20419;-49
2023/09/09 00:46:27;;;;;;;14.07;8.87;;;;;;;17.07;100.00;101443.13;7364462;19;21107;-52
2023/09/09 00:49:00;;;;;;;12.60;9.33;;;;;;;17.05;100.00;101447.44;7389601;19;20768;-48
2023/09/09 00:51:29;;;;;;;12.40;8.40;;;;;;;16.98;100.00;101446.34;7363840;19;20430;-48
2023/09/09 00:53:59;;;;;;;13.10;9.80;;;;;;;16.98;100.00;101459.38;7387874;19;20494;-49
2023/09/09 00:56:32;;;;;;;14.00;9.13;;;;;;;16.96;100.00;101455.84;7365567;19;20420;-54
2023/09/09 00:59:02;;;;;;;14.90;9.53;;;;;;;16.95;100.00;101471.44;7389715;19;20391;-49
2023/09/09 01:01:34;;;;;;;13.73;9.70;;;;;;;16.96;100.00;101479.31;7365569;19;20964;-51
2023/09/09 01:04:04;;;;;;;12.93;9.67;;;;;;;16.95;100.00;101476.66;7389979;19;20423;-51
2023/09/09 01:06:33;;;;;;;15.17;10.33;;;;;;;17.01;100.00;101487.25;7365936;19;20409;-50
2023/09/09 01:09:08;;;;;;;14.77;10.47;;;;;;;16.95;100.00;101476.66;7390502;19;20429;-54
2023/09/09 01:11:38;;;;;;;14.10;9.30;;;;;;;16.96;100.00;101478.41;7366240;19;20422;-56
2023/09/09 01:14:07;;;;;;;15.47;10.00;;;;;;;16.93;100.00;101473.13;7388415;19;20420;-54
2023/09/09 01:16:40;;;;;;;13.57;9.30;;;;;;;16.78;100.00;101473.59;7365099;19;20400;-53
2023/09/09 01:19:10;;;;;;;13.43;9.57;;;;;;;16.71;100.00;101488.16;7388496;19;20391;-55
2023/09/09 01:21:51;;;;;;;13.60;9.80;;;;;;;16.70;100.00;101518.56;7365537;19;20421;-52
2023/09/09 01:24:23;;;;;;;13.53;9.60;;;;;;;16.69;100.00;101541.97;7392858;19;20454;-52
2023/09/09 01:26:53;;;;;;;14.80;10.03;;;;;;;16.74;100.00;101551.69;7369407;19;20502;-49
2023/09/09 01:29:22;;;;;;;13.90;9.53;;;;;;;16.67;100.00;101557.53;7394413;19;20903;-53
2023/09/09 01:31:52;;;;;;;13.80;9.30;;;;;;;16.58;100.00;101554.69;7368662;19;20443;-51
2023/09/09 01:34:22;;;;;;;13.97;9.13;;;;;;;16.56;100.00;101569.41;7395072;19;21066;-53
2023/09/09 01:36:52;;;;;;;13.80;9.80;;;;;;;16.51;100.00;101577.03;7368718;19;20443;-50
2023/09/09 01:39:24;;;;;;;18.27;10.50;;;;;;;16.49;100.00;101593.47;7395430;19;20499;-51
2023/09/09 01:41:54;;;;;;;25.97;10.13;;;;;;;16.52;100.00;101607.50;7368960;19;20801;-53
2023/09/09 01:44:24;;;;;;;15.90;9.33;;;;;;;16.40;100.00;101612.31;7393925;19;20455;-50
2023/09/09 01:46:53;;;;;;;12.50;9.30;;;;;;;16.32;100.00;101625.94;7368488;19;20874;-52
2023/09/09 01:49:23;;;;;;;13.00;8.97;;;;;;;16.37;100.00;101638.25;7393076;19;20479;-48
2023/09/09 01:51:53;;;;;;;12.90;9.80;;;;;;;16.30;100.00;101640.66;7368672;19;20911;-50
2023/09/09 01:54:25;;;;;;;15.93;9.87;;;;;;;16.31;100.00;101652.81;7391843;19;20434;-53
2023/09/09 01:56:55;;;;;;;13.47;8.93;;;;;;;16.26;100.00;101659.59;7368494;19;20455;-50
2023/09/09 01:59:24;;;;;;;14.77;10.00;;;;;;;16.26;100.00;101676.97;7394302;19;20410;-51
2023/09/09 02:01:54;;;;;;;12.27;9.00;;;;;;;16.16;100.00;101686.19;7366521;19;20472;-52
2023/09/09 02:04:23;;;;;;;14.73;10.03;;;;;;;16.21;100.00;101700.25;7392674;19;20958;-48
2023/09/09 02:06:55;;;;;;;15.47;10.40;;;;;;;16.27;100.00;101716.06;7367986;19;20494;-51
2023/09/09 02:09:27;;;;;;;15.90;10.70;;;;;;;16.28;100.00;101716.94;7392627;19;20502;-50
2023/09/09 02:11:57;;;;;;;14.57;9.77;;;;;;;16.09;100.00;101710.25;7366651;19;20443;-53
2023/09/09 02:14:27;;;;;;;16.90;11.83;;;;;;;15.96;100.00;101735.84;7391904;19;20448;-50
2023/09/09 02:16:56;;;;;;;18.23;11.37;;;;;;;15.91;100.00;101740.81;7368034;19;20496;-53
2023/09/09 02:19:26;;;;;;;14.70;10.87;;;;;;;15.90;100.00;101743.41;7391978;19;20955;-55
2023/09/09 02:21:55;;;;;;;13.40;9.70;;;;;;;15.90;100.00;101751.22;7367533;19;20432;-48
2023/09/09 02:24:28;;;;;;;13.27;9.37;;;;;;;15.86;100.00;101759.72;7391926;19;20439;-51
2023/09/09 02:26:57;;;;;;;14.30;9.70;;;;;;;15.80;100.00;101763.88;7367961;19;20431;-48
2023/09/09 02:29:27;;;;;;;16.07;10.00;;;;;;;15.78;100.00;101762.94;7396349;19;20486;-51
2023/09/09 02:31:56;;;;;;;12.73;9.57;;;;;;;15.91;100.00;101768.59;7374308;19;20430;-58
2023/09/09 02:34:26;;;;;;;15.70;10.03;;;;;;;15.86;100.00;101771.03;7398365;19;20439;-51
2023/09/09 02:37:18;;;;;;;18.43;9.43;;;;;;;15.81;100.00;101767.38;7374475;19;20441;-50
2023/09/09 02:39:51;;;;;;;17.23;10.93;;;;;;;15.73;100.00;101764.47;7397533;19;20491;-49
2023/09/09 02:42:22;;;;;;;19.63;11.03;;;;;;;15.65;100.00;101776.34;7374328;19;20455;-49
2023/09/09 02:44:52;;;;;;;15.90;10.20;;;;;;;15.65;100.00;101776.34;7396854;19;20451;-50
2023/09/09 02:47:22;;;;;;;13.50;10.20;;;;;;;15.73;100.00;101777.50;7374884;19;20502;-48
2023/09/09 02:49:52;;;;;;;14.20;10.13;;;;;;;15.63;100.00;101783.16;7398613;19;20402;-48
2023/09/09 02:52:23;;;;;;;14.17;10.40;;;;;;;15.57;100.00;101782.94;7374141;19;21024;-49
2023/09/09 02:54:55;;;;;;;16.33;11.07;;;;;;;15.63;100.00;101785.78;7397757;19;20443;-52
2023/09/09 02:57:25;;;;;;;18.13;11.60;;;;;;;15.55;100.00;101779.41;7371303;19;20477;-51
2023/09/09 02:59:55;;;;;;;13.80;10.60;;;;;;;15.52;100.00;101786.28;7396760;19;20391;-50
2023/09/09 03:02:24;;;;;;;15.40;10.27;;;;;;;15.43;100.00;101785.03;7367509;19;20483;-54
2023/09/09 03:04:54;;;;;;;12.63;10.07;;;;;;;15.37;100.00;101789.19;7394651;19;20798;-49
2023/09/09 03:07:24;;;;;;;14.37;9.27;;;;;;;15.37;100.00;101793.47;7371023;19;20934;-48
2023/09/09 03:09:56;;;;;;;14.50;9.77;;;;;;;15.29;100.00;101792.31;7395915;19;20440;-49
2023/09/09 03:12:25;;;;;;;13.53;10.00;;;;;;;15.21;100.00;101787.69;7370363;19;20760;-47
2023/09/09 03:14:55;;;;;;;16.47;10.53;;;;;;;15.24;100.00;101787.81;7393518;19;20419;-51
2023/09/09 03:17:25;;;;;;;16.30;11.10;;;;;;;15.31;100.00;101780.25;7370142;19;20482;-52
2023/09/09 03:19:55;;;;;;;15.30;11.00;;;;;;;15.37;100.00;101772.69;7398175;19;20420;-49
2023/09/09 03:22:24;;;;;;;14.53;9.70;;;;;;;15.37;100.00;101767.47;7369628;19;20430;-54
2023/09/09 03:24:56;;;;;;;18.23;11.53;;;;;;;15.38;100.00;101761.44;7393251;19;21177;-48
2023/09/09 03:27:26;;;;;;;22.63;16.13;;;;;;;15.42;100.00;101760.75;7368135;19;20498;-49
2023/09/09 03:29:55;;;;;;;89.97;54.33;;;;;;;15.41;100.00;101747.66;7395159;19;20395;-48
2023/09/09 03:32:25;;;;;;;91.63;49.27;;;;;;;15.55;100.00;101733.50;7369376;19;20847;-52
2023/09/09 03:34:55;;;;;;;86.23;47.80;;;;;;;15.73;100.00;101706.34;7393313;19;20495;-49
2023/09/09 03:37:25;;;;;;;52.50;31.53;;;;;;;15.76;100.00;101716.88;7370014;19;20402;-49
2023/09/09 03:39:57;;;;;;;37.67;24.37;;;;;;;15.71;100.00;101727.13;7392260;19;20387;-46
2023/09/09 03:42:27;;;;;;;38.93;23.77;;;;;;;15.83;100.00;101729.28;7362106;19;20501;-43
2023/09/09 03:44:58;;;;;;;35.90;23.40;;;;;;;15.85;100.00;101738.00;7393445;19;20746;-44
2023/09/09 03:47:27;;;;;;;31.67;20.37;;;;;;;15.82;100.00;101750.94;7372052;19;20437;-42
2023/09/09 03:49:57;;;;;;;37.43;23.60;;;;;;;15.82;100.00;101757.84;7395401;19;20400;-45
2023/09/09 03:52:26;;;;;;;19.67;12.90;;;;;;;15.66;100.00;101762.50;7371118;19;20462;-43
2023/09/09 03:54:59;;;;;;;25.20;16.83;;;;;;;15.62;100.00;101765.81;7395204;19;20403;-43
2023/09/09 03:57:28;;;;;;;21.10;14.87;;;;;;;15.73;100.00;101763.59;7371626;19;20431;-45
2023/09/09 03:59:58;;;;;;;27.37;17.60;;;;;;;15.88;100.00;101758.06;7393680;19;20478;-43
2023/09/09 04:02:27;;;;;;;23.57;15.53;;;;;;;15.82;100.00;101763.03;7368185;19;20494;-43
2023/09/09 04:04:57;;;;;;;22.30;15.03;;;;;;;15.73;100.00;101769.69;7394523;19;20747;-44
2023/09/09 04:07:27;;;;;;;20.20;13.90;;;;;;;15.70;100.00;101769.59;7370388;19;20429;-43
2023/09/09 04:09:59;;;;;;;19.50;13.80;;;;;;;15.70;100.00;101766.09;7395987;19;20851;-45
2023/09/09 04:12:29;;;;;;;20.43;13.90;;;;;;;15.73;100.00;101759.28;7369564;19;21071;-44
2023/09/09 04:14:58;;;;;;;17.23;11.93;;;;;;;15.71;100.00;101766.16;7396659;19;20482;-45
2023/09/09 04:17:28;;;;;;;19.23;12.73;;;;;;;15.72;100.00;101767.03;7371557;19;20438;-43
2023/09/09 04:19:57;;;;;;;16.67;11.93;;;;;;;15.69;100.00;101762.59;7394552;19;20860;-45
2023/09/09 04:22:27;;;;;;;19.23;13.60;;;;;;;15.67;100.00;101764.25;7370132;19;20455;-46
2023/09/09 04:24:59;;;;;;;16.13;11.63;;;;;;;15.69;100.00;101765.19;7394541;19;20428;-44
2023/09/09 04:27:30;;;;;;;17.80;11.50;;;;;;;15.54;100.00;101768.13;7373444;19;20423;-43
2023/09/09 04:30:00;;;;;;;16.17;11.50;;;;;;;15.48;100.00;101771.38;7394182;19;20407;-44
2023/09/09 04:32:31;;;;;;;18.00;12.10;;;;;;;15.32;100.00;101772.50;7371892;19;20474;-44
2023/09/09 04:35:01;;;;;;;16.23;10.93;;;;;;;15.24;100.00;101774.81;7394611;19;20766;-43
2023/09/09 04:37:32;;;;;;;16.53;10.87;;;;;;;15.32;100.00;101769.91;7373275;19;20443;-45
2023/09/09 04:40:06;;;;;;;16.60;10.77;;;;;;;15.27;100.00;101768.84;7395252;19;20400;-44
2023/09/09 04:42:35;;;;;;;16.53;11.20;;;;;;;15.17;100.00;101767.59;7371483;19;20447;-44
2023/09/09 04:45:07;;;;;;;15.77;10.20;;;;;;;15.17;100.00;101764.13;7385580;19;20958;-42
2023/09/09 04:47:37;;;;;;;17.83;12.30;;;;;;;15.31;100.00;101769.84;7395032;19;20416;-43
2023/09/09 04:50:07;;;;;;;15.47;11.73;;;;;;;15.47;100.00;101764.41;7370188;19;20448;-45
2023/09/09 04:52:37;;;;;;;16.40;11.37;;;;;;;15.76;100.00;101763.72;7391084;19;20415;-43
2023/09/09 04:55:10;;;;;;;17.43;10.90;;;;;;;15.74;100.00;101765.38;7371916;19;20792;-46
2023/09/09 04:57:40;;;;;;;19.20;11.03;;;;;;;15.70;100.00;101763.50;7394334;19;20417;-45
2023/09/09 05:00:10;;;;;;;16.37;10.60;;;;;;;15.72;100.00;101765.31;7370369;19;20471;-43
2023/09/09 05:02:41;;;;;;;14.27;10.60;;;;;;;15.65;100.00;101765.94;7392494;19;20435;-45
2023/09/09 05:05:11;;;;;;;15.73;10.43;;;;;;;15.40;100.00;101778.00;7369456;19;20423;-44
2023/09/09 05:07:41;;;;;;;14.00;10.70;;;;;;;15.57;100.00;101772.53;7394235;19;20403;-44
2023/09/09 05:10:13;;;;;;;17.87;11.30;;;;;;;15.53;100.00;101772.44;7371145;19;20416;-43
2023/09/09 05:12:43;;;;;;;14.00;10.60;;;;;;;15.67;100.00;101777.25;7391282;19;20816;-44
2023/09/09 05:15:16;;;;;;;18.60;10.30;;;;;;;15.60;100.00;101778.78;7370761;19;20399;-43
2023/09/09 05:17:46;;;;;;;18.33;10.37;;;;;;;15.63;100.00;101772.75;7390685;19;20495;-46
2023/09/09 05:20:16;;;;;;;13.00;10.13;;;;;;;15.42;100.00;101778.06;7370783;19;20931;-42
2023/09/09 05:22:45;;;;;;;13.63;10.70;;;;;;;15.54;100.00;101778.53;7391570;19;20447;-45
2023/09/09 05:25:18;;;;;;;13.50;10.30;;;;;;;15.63;100.00;101773.66;7368352;19;20415;-44
2023/09/09 05:27:47;;;;;;;14.50;10.30;;;;;;;15.68;100.00;101779.03;7390793;19;20396;-42
2023/09/09 05:30:17;;;;;;;17.10;11.50;;;;;;;15.57;100.00;101778.63;7369006;19;20474;-42
2023/09/09 05:32:47;;;;;;;16.93;10.90;;;;;;;15.52;100.00;101781.06;7389746;19;20450;-44
2023/09/09 05:35:17;;;;;;;103.63;67.23;;;;;;;15.56;100.00;101782.06;7368453;19;20408;-43
2023/09/09 05:37:47;;;;;;;24.00;15.77;;;;;;;15.56;100.00;101783.78;7390458;19;20491;-44
2023/09/09 05:40:20;;;;;;;26.47;16.30;;;;;;;15.66;100.00;101778.09;7368188;19;20408;-42
2023/09/09 05:42:49;;;;;;;32.43;23.13;;;;;;;15.87;100.00;101780.59;7388723;19;20443;-42
2023/09/09 05:45:19;;;;;;;42.07;24.93;;;;;;;15.76;100.00;101779.31;7369899;19;20766;-43
2023/09/09 05:47:49;;;;;;;22.00;15.37;;;;;;;15.75;100.00;101778.41;7392111;19;20410;-43
2023/09/09 05:50:18;;;;;;;26.33;17.57;;;;;;;15.80;100.00;101776.88;7367360;19;20407;-42
2023/09/09 05:52:48;;;;;;;28.80;19.67;;;;;;;15.91;100.00;101776.41;7390302;19;20511;-43
2023/09/09 05:55:20;;;;;;;26.03;13.57;;;;;;;15.98;100.00;101768.00;7367810;19;20774;-44
2023/09/09 05:57:50;;;;;;;29.30;17.83;;;;;;;16.02;100.00;101764.69;7390836;19;20411;-44
2023/09/09 06:00:20;;;;;;;27.80;16.33;;;;;;;16.10;100.00;101758.84;7364431;19;20426;-42
2023/09/09 06:02:49;;;;;;;21.93;13.27;;;;;;;16.02;100.00;101755.97;7389789;19;20443;-42
2023/09/09 06:05:19;;;;;;;24.60;14.57;;;;;;;16.18;100.00;101747.00;7376655;19;20419;-43
2023/09/09 06:07:48;;;;;;;21.17;12.20;;;;;;;16.15;100.00;101731.28;7396393;19;20414;-44
2023/09/09 06:10:21;;;;;;;14.17;10.57;;;;;;;16.20;100.00;101729.69;7374219;19;20419;-44
2023/09/09 06:12:51;;;;;;;20.83;12.97;;;;;;;16.38;100.00;101731.16;7394554;19;20443;-44
2023/09/09 06:15:21;;;;;;;18.03;12.30;;;;;;;16.39;100.00;101715.59;7373636;19;20928;-44
2023/09/09 06:17:51;;;;;;;19.87;12.73;;;;;;;16.37;100.00;101711.16;7396127;19;20396;-44
2023/09/09 06:20:20;;;;;;;16.30;11.47;;;;;;;16.38;100.00;101707.72;7376080;19;20403;-45
2023/09/09 06:22:50;;;;;;;19.90;11.47;;;;;;;16.27;100.00;101703.06;7395183;19;20526;-43
2023/09/09 06:25:22;;;;;;;19.00;12.83;;;;;;;16.17;100.00;101706.16;7372453;19;21258;-43
2023/09/09 06:27:52;;;;;;;17.57;12.03;;;;;;;16.20;100.00;101719.28;7392131;19;20407;-43
2023/09/09 06:30:21;;;;;;;23.30;12.80;;;;;;;16.22;100.00;101725.44;7373160;19;20486;-45
2023/09/09 06:32:51;;;;;;;18.97;12.00;;;;;;;16.24;100.00;101723.75;7394988;19;20435;-46
2023/09/09 06:35:22;;;;;;;15.43;11.50;;;;;;;16.23;100.00;101729.81;7372614;19;20407;-43
2023/09/09 06:37:51;;;;;;;15.53;10.40;;;;;;;16.33;100.00;101731.91;7395966;19;20483;-45
2023/09/09 06:40:23;;;;;;;18.73;11.90;;;;;;;16.38;100.00;101724.22;7375563;19;20414;-45
2023/09/09 06:42:53;;;;;;;19.33;12.20;;;;;;;16.45;100.00;101730.50;7396124;19;20435;-43
2023/09/09 06:45:23;;;;;;;20.90;12.57;;;;;;;16.58;100.00;101727.50;7375762;19;20418;-43
2023/09/09 06:47:53;;;;;;;16.13;11.00;;;;;;;16.70;100.00;101715.69;7395276;19;20411;-44
2023/09/09 06:50:23;;;;;;;16.00;11.40;;;;;;;16.73;100.00;101698.41;7372984;19;20783;-43
2023/09/09 06:52:53;;;;;;;16.17;10.87;;;;;;;16.77;100.00;101707.22;7393773;19;20467;-42
2023/09/09 06:55:25;;;;;;;16.63;9.50;;;;;;;16.83;100.00;101698.72;7374029;19;20403;-42
2023/09/09 06:57:54;;;;;;;12.13;9.50;;;;;;;16.88;100.00;101711.03;7394614;19;20408;-42
2023/09/09 07:00:24;;;;;;;16.60;11.50;;;;;;;17.01;100.00;101685.34;7369904;19;20412;-45
2023/09/09 07:02:53;;;;;;;12.40;9.97;;;;;;;17.08;100.00;101648.22;7396008;19;20455;-44
2023/09/09 07:05:23;;;;;;;15.70;10.00;;;;;;;17.17;100.00;101628.50;7371314;19;20415;-45
2023/09/09 07:07:53;;;;;;;14.73;10.07;;;;;;;17.23;100.00;101592.16;7394779;19;20412;-43
2023/09/09 07:10:27;;;;;;;14.17;10.20;;;;;;;17.34;100.00;101585.50;7371737;19;20458;-44
2023/09/09 07:12:57;;;;;;;13.20;9.60;;;;;;;17.48;100.00;101561.53;7394561;19;20462;-46
2023/09/09 07:15:27;;;;;;;15.27;9.90;;;;;;;17.58;100.00;101526.13;7369281;19;20399;-44
2023/09/09 07:17:57;;;;;;;14.30;10.10;;;;;;;17.68;100.00;101491.56;7396844;19;20416;-42
2023/09/09 07:20:27;;;;;;;13.30;9.67;;;;;;;17.75;100.00;101471.72;7370558;19;20399;-43
2023/09/09 07:22:57;;;;;;;16.10;9.47;;;;;;;17.83;100.00;101453.66;7393735;19;20465;-50
2023/09/09 07:25:29;;;;;;;15.47;10.50;;;;;;;17.89;100.00;101432.91;7371299;19;20419;-43
2023/09/09 07:27:59;;;;;;;26.63;11.50;;;;;;;18.00;100.00;101413.13;7394461;19;20414;-45
2023/09/09 07:30:31;;;;;;;14.70;10.70;;;;;;;18.10;100.00;101406.38;7371968;19;20407;-46
2023/09/09 07:33:03;;;;;;;16.20;10.80;;;;;;;18.19;100.00;101374.38;7393462;19;20444;-45
2023/09/09 07:35:35;;;;;;;15.10;10.70;;;;;;;18.26;100.00;101346.66;7371094;19;20448;-41
2023/09/09 07:38:06;;;;;;;16.20;10.20;;;;;;;18.33;100.00;101336.34;7396165;19;20404;-42
2023/09/09 07:40:38;;;;;;;16.37;9.37;;;;;;;18.40;100.00;101315.56;7372152;19;20785;-44
2023/09/09 07:43:08;;;;;;;16.10;10.67;;;;;;;18.43;100.00;101300.84;7392592;19;20443;-44
2023/09/09 07:45:38;;;;;;;14.40;8.80;;;;;;;18.60;100.00;101255.81;7371257;19;21995;-44
2023/09/09 07:48:08;;;;;;;17.83;10.87;;;;;;;18.73;100.00;101231.63;7393971;19;20420;-42
2023/09/09 07:50:38;;;;;;;13.10;9.47;;;;;;;18.85;100.00;101189.13;7368955;19;20522;-44
2023/09/09 07:53:08;;;;;;;11.70;8.90;;;;;;;19.01;100.00;101169.31;7392358;19;20435;-42
2023/09/09 07:55:40;;;;;;;20.87;10.80;;;;;;;19.11;100.00;101175.56;7372911;19;20414;-44
2023/09/09 07:58:09;;;;;;;24.77;14.33;;;;;;;19.21;100.00;101173.06;7393620;19;20411;-45
2023/09/09 08:00:41;;;;;;;29.50;16.90;;;;;;;19.23;100.00;101187.91;7365764;19;20917;-46
2023/09/09 08:03:10;;;;;;;15.23;10.23;;;;;;;19.35;100.00;101157.53;7392958;19;20444;-44
2023/09/09 08:05:40;;;;;;;20.00;10.67;;;;;;;19.46;100.00;101155.94;7371186;19;20487;-44
2023/09/09 08:08:10;;;;;;;15.37;9.33;;;;;;;19.61;100.00;101156.94;7394159;19;20408;-46
2023/09/09 08:10:44;;;;;;;19.00;10.63;;;;;;;19.74;100.00;101135.28;7371689;19;20454;-45
2023/09/09 08:13:13;;;;;;;31.13;17.40;;;;;;;19.88;100.00;101142.41;7392658;19;20454;-46
2023/09/09 08:15:43;;;;;;;21.70;10.70;;;;;;;19.97;100.00;101139.88;7364954;19;20403;-44
2023/09/09 08:18:13;;;;;;;16.40;9.40;;;;;;;20.06;100.00;101137.34;7394227;19;20392;-44
2023/09/09 08:20:44;;;;;;;27.03;13.40;;;;;;;20.19;100.00;101153.16;7370284;19;20415;-44
2023/09/09 08:23:13;;;;;;;23.40;11.70;;;;;;;20.25;100.00;101158.44;7393039;19;21275;-45
2023/09/09 08:25:46;;;;;;;25.10;14.53;;;;;;;20.30;100.00;101163.75;7372051;19;20450;-45
2023/09/09 08:28:15;;;;;;;11.67;8.23;;;;;;;20.47;100.00;101172.56;7393687;19;20470;-44
2023/09/09 08:30:48;;;;;;;13.23;8.90;;;;;;;20.59;100.00;101169.19;7369524;19;20451;-44
2023/09/09 08:33:18;;;;;;;17.63;10.70;;;;;;;20.70;100.00;101187.59;7393018;19;20818;-42
2023/09/09 08:35:48;;;;;;;20.63;12.57;;;;;;;20.72;100.00;101185.00;7368621;19;20423;-42
2023/09/09 08:38:17;;;;;;;16.90;8.63;;;;;;;20.87;100.00;101185.09;7395454;19;20406;-44
2023/09/09 08:40:55;;;;;;;41.03;22.30;;;;;;;21.07;100.00;101191.34;7370057;19;20419;-44
2023/09/09 08:43:31;;;;;;;15.77;7.87;;;;;;;21.15;100.00;101195.75;7392186;19;20443;-44
2023/09/09 08:46:05;;;;;;;14.90;9.97;;;;;;;21.34;100.00;101202.81;7369462;19;20791;-44
2023/09/09 08:48:39;;;;;;;21.83;9.00;;;;;;;21.43;100.00;101201.09;7393633;19;20408;-42
2023/09/09 08:51:11;;;;;;;10.67;7.93;;;;;;;21.59;100.00;101206.41;7369264;19;20407;-40
2023/09/09 08:53:42;;;;;;;11.70;8.40;;;;;;;21.75;100.00;101214.34;7392452;19;20447;-42
2023/09/09 08:56:15;;;;;;;60.67;30.20;;;;;;;21.85;100.00;101218.78;7369596;19;20523;-42
2023/09/09 08:58:45;;;;;;;17.70;10.60;;;;;;;21.86;100.00;101220.53;7392947;19;21065;-41
2023/09/09 09:01:16;;;;;;;16.83;10.53;;;;;;;21.96;100.00;101232.78;7367758;19;20425;-40
2023/09/09 09:03:47;;;;;;;15.63;8.30;;;;;;;21.95;100.00;101235.41;7390840;19;20464;-45
2023/09/09 09:06:17;;;;;;;13.93;7.83;;;;;;;22.17;100.00;101231.06;7367924;19;20423;-44
2023/09/09 09:08:46;;;;;;;30.47;15.93;;;;;;;22.33;100.00;101241.56;7393424;19;20415;-39
2023/09/09 09:11:20;;;;;;;69.33;31.57;;;;;;;22.32;100.00;101247.72;7368738;19;20440;-44
2023/09/09 09:13:50;;;;;;;14.57;8.80;;;;;;;22.60;100.00;101239.88;7391121;19;20447;-43
2023/09/09 09:16:20;;;;;;;16.73;9.77;;;;;;;22.72;100.00;101246.88;7368470;19;20431;-39
2023/09/09 09:18:50;;;;;;;21.00;12.53;;;;;;;22.75;100.00;101250.38;7391904;19;20403;-40
2023/09/09 09:21:21;;;;;;;113.80;58.33;;;;;;;22.79;100.00;101246.88;7368665;19;20423;-39
2023/09/09 09:23:50;;;;;;;81.23;41.63;;;;;;;22.97;100.00;101250.31;7391042;19;20451;-41
2023/09/09 09:26:30;;;;;;;34.33;19.53;;;;;;;23.13;100.00;101258.19;7366700;19;20423;-41
2023/09/09 09:29:00;;;;;;;26.73;15.00;;;;;;;23.25;100.00;101245.00;7391276;19;20432;-42
2023/09/09 09:31:30;;;;;;;69.77;36.97;;;;;;;23.36;100.00;101247.63;7367949;19;20455;-40
2023/09/09 09:33:59;;;;;;;20.00;11.83;;;;;;;23.38;100.00;101244.97;7391108;19;20443;-42
2023/09/09 09:36:29;;;;;;;184.40;91.63;;;;;;;23.43;100.00;101256.38;7367365;19;20419;-42
2023/09/09 09:38:59;;;;;;;45.63;23.47;;;;;;;23.43;100.00;101262.50;7390469;19;20411;-40
2023/09/09 09:41:33;;;;;;;58.23;31.07;;;;;;;23.58;100.00;101248.41;7367607;19;20422;-40
2023/09/09 09:44:03;;;;;;;243.20;115.67;;;;;;;23.63;100.00;101250.13;7390188;19;21293;-42
2023/09/09 09:46:33;;;;;;;107.87;50.13;;;;;;;23.63;100.00;101258.03;7367803;19;20415;-39
2023/09/09 09:49:10;;;;;;;44.77;21.93;;;;;;;23.87;100.00;101249.13;7385862;19;20411;-41
2023/09/09 09:51:45;;;;;;;133.93;66.80;;;;;;;23.94;100.00;101255.25;7367834;19;21600;-42
2023/09/09 09:54:19;;;;;;;60.77;31.23;;;;;;;24.05;100.00;101258.66;7391167;19;20443;-43
2023/09/09 09:56:51;;;;;;;17.63;10.90;;;;;;;24.44;100.00;101253.13;7367558;19;20475;-41
2023/09/09 09:59:22;;;;;;;34.83;19.50;;;;;;;24.40;100.00;101265.47;7391342;19;20479;-42
2023/09/09 10:01:53;;;;;;;88.73;44.07;;;;;;;24.56;100.00;101260.09;7365708;19;20435;-40
2023/09/09 10:04:23;;;;;;;132.03;63.17;;;;;;;24.45;100.00;101252.25;7391345;19;20447;-45
2023/09/09 10:06:55;;;;;;;33.17;16.90;;;;;;;24.49;100.00;101258.38;7367334;19;20520;-42
2023/09/09 10:09:33;;;;;;;34.53;18.30;;;;;;;24.62;100.00;101249.44;7391708;19;20410;-41
2023/09/09 10:12:09;;;;;;;58.77;32.27;;;;;;;24.64;100.00;101260.88;7366145;19;20423;-40
2023/09/09 10:14:39;;;;;;;26.00;13.93;;;;;;;24.87;100.00;101269.50;7390315;19;20435;-44
2023/09/09 10:17:09;;;;;;;29.07;16.00;;;;;;;24.99;100.00;101263.22;7366640;19;20451;-43
2023/09/09 10:19:39;;;;;;;38.83;22.23;;;;;;;25.14;100.00;101267.44;7391481;19;20410;-44
2023/09/09 10:22:09;;;;;;;24.13;12.60;;;;;;;25.42;100.00;101265.34;7366620;19;20428;-47
2023/09/09 10:24:41;;;;;;;31.73;19.63;;;;;;;25.45;100.00;101254.78;7391227;19;20547;-48
2023/09/09 10:27:14;;;;;;;40.87;23.27;;;;;;;25.58;100.00;101304.84;7367239;19;20510;-46
2023/09/09 10:29:44;;;;;;;59.53;32.60;;;;;;;25.64;100.00;101322.38;7391153;19;20424;-46
2023/09/09 10:32:15;;;;;;;107.27;57.30;;;;;;;25.74;100.00;101324.00;7366656;19;20439;-48
2023/09/09 10:34:46;;;;;;;35.00;19.47;;;;;;;25.86;100.00;101286.84;7391629;19;20403;-46
2023/09/09 10:37:19;;;;;;;34.40;19.43;;;;;;;25.88;100.00;101269.19;7366179;19;20434;-45
2023/09/09 10:39:50;;;;;;;21.03;11.13;;;;;;;26.14;100.00;101270.56;7390129;19;20415;-45
2023/09/09 10:42:23;;;;;;;22.63;13.10;;;;;;;25.96;100.00;101260.28;7365852;19;20435;-44
2023/09/09 10:44:52;;;;;;;15.50;9.37;;;;;;;25.83;100.00;101255.16;7389846;19;20495;-50
2023/09/09 10:47:22;;;;;;;15.83;9.97;;;;;;;25.86;100.00;101255.13;7366108;19;20430;-48
2023/09/09 10:50:05;;;;;;;24.33;11.83;;;;;;;25.84;100.00;101262.19;7391534;19;20411;-47
2023/09/09 10:52:35;;;;;;;29.40;15.47;;;;;;;25.87;100.00;101259.53;7375377;19;20443;-48
2023/09/09 10:55:15;;;;;;;15.93;9.33;;;;;;;26.21;100.00;101251.97;7389012;19;20414;-44
2023/09/09 10:57:58;;;;;;;19.53;12.30;;;;;;;26.20;100.00;101239.66;7397328;19;20435;-46
2023/09/09 11:00:38;;;;;;;27.43;15.80;;;;;;;26.31;100.00;101236.84;7370522;19;20398;-46
2023/09/09 11:03:12;;;;;;;29.03;16.37;;;;;;;26.37;100.00;101239.41;7395526;19;20435;-45
2023/09/09 11:06:00;;;;;;;13.83;8.50;;;;;;;26.60;100.00;101227.56;7371795;19;20434;-45
2023/09/09 11:08:30;;;;;;;16.50;10.67;;;;;;;26.44;100.00;101216.38;7398417;19;20428;-47
2023/09/09 11:11:10;;;;;;;17.73;10.50;;;;;;;26.49;100.00;101220.69;7372485;19;20518;-46
2023/09/09 11:13:44;;;;;;;32.87;19.17;;;;;;;26.63;100.00;101222.19;7394695;19;20438;-45
2023/09/09 11:16:34;;;;;;;23.23;13.37;;;;;;;26.68;100.00;101221.22;7371458;19;20423;-45
2023/09/09 11:19:07;;;;;;;19.43;10.70;;;;;;;26.86;100.00;101207.66;7395633;19;20423;-48
2023/09/09 11:21:37;;;;;;;19.90;11.83;;;;;;;26.93;100.00;101207.53;7372495;19;20531;-49